HPJ71 KNKT-KEYW
Flight info
| Callsign | HPJ71 |
|---|---|
| Flight time | 1h 57m |
| Altitude | 47000 |
| Route | CHIEZ WYLMS CAKET ENEME FNTSY1 |
| Aircraft | C750/M-SBDE3FGHRWXY/S |
Departure
| Time | 2026-05-04 17:47 |
|---|---|
| Airport | Cherry Point MCAS / Cunningham Field/ (KNKT) |
Arrival
| Time | 2026-05-04 19:45 |
|---|---|
| Airport | Key West International Airport (KEYW) |
| Time | Latitude | Longitude | Altitude | Speed | Heading |
|---|---|---|---|---|---|
| 2026-05-04 17:36 | 34.90117 | -76.88551 | 33 ft | 0 kts | 135° |
| 2026-05-04 17:43 | 34.90109 | -76.88505 | 33 ft | 12 kts | 82° |
| 2026-05-04 17:44 | 34.90183 | -76.88399 | 33 ft | 21 kts | 43° |
| 2026-05-04 17:44 | 34.90300 | -76.88350 | 33 ft | 20 kts | 316° |
| 2026-05-04 17:44 | 34.90415 | -76.88490 | 32 ft | 28 kts | 316° |
| 2026-05-04 17:44 | 34.90569 | -76.88677 | 31 ft | 36 kts | 315° |
| 2026-05-04 17:45 | 34.90753 | -76.88891 | 30 ft | 36 kts | 315° |
| 2026-05-04 17:45 | 34.90924 | -76.89101 | 29 ft | 34 kts | 315° |
| 2026-05-04 17:45 | 34.91086 | -76.89301 | 29 ft | 32 kts | 314° |
| 2026-05-04 17:45 | 34.91240 | -76.89491 | 28 ft | 31 kts | 315° |
| 2026-05-04 17:46 | 34.91386 | -76.89666 | 27 ft | 27 kts | 315° |
| 2026-05-04 17:46 | 34.91500 | -76.89671 | 28 ft | 19 kts | 47° |
| 2026-05-04 17:46 | 34.91562 | -76.89534 | 24 ft | 20 kts | 103° |
| 2026-05-04 17:46 | 34.91361 | -76.89268 | 27 ft | 93 kts | 137° |
| 2026-05-04 17:47 | 34.90705 | -76.88506 | 183 ft | 148 kts | 138° |
| 2026-05-04 17:47 | 34.89959 | -76.87630 | 950 ft | 136 kts | 142° |
| 2026-05-04 17:47 | 34.89223 | -76.86978 | 1763 ft | 137 kts | 144° |
| 2026-05-04 17:47 | 34.88507 | -76.86088 | 2192 ft | 158 kts | 134° |
| 2026-05-04 17:48 | 34.87451 | -76.85488 | 2164 ft | 186 kts | 179° |
| 2026-05-04 17:48 | 34.86201 | -76.86109 | 2104 ft | 210 kts | 218° |
| 2026-05-04 17:48 | 34.85258 | -76.87462 | 2123 ft | 203 kts | 234° |
| 2026-05-04 17:48 | 34.84448 | -76.89031 | 2439 ft | 235 kts | 237° |
| 2026-05-04 17:49 | 34.83549 | -76.90776 | 3284 ft | 248 kts | 237° |
| 2026-05-04 17:49 | 34.82617 | -76.92534 | 4482 ft | 249 kts | 237° |
| 2026-05-04 17:49 | 34.81662 | -76.94329 | 5509 ft | 256 kts | 237° |
| 2026-05-04 17:49 | 34.80686 | -76.96172 | 6507 ft | 262 kts | 238° |
| 2026-05-04 17:50 | 34.79695 | -76.98050 | 7550 ft | 266 kts | 238° |
| 2026-05-04 17:50 | 34.78698 | -76.99940 | 8597 ft | 272 kts | 238° |
| 2026-05-04 17:50 | 34.77666 | -77.01889 | 9606 ft | 277 kts | 238° |
| 2026-05-04 17:50 | 34.76610 | -77.03881 | 10487 ft | 286 kts | 239° |
| 2026-05-04 17:51 | 34.75487 | -77.06006 | 10783 ft | 312 kts | 239° |
| 2026-05-04 17:51 | 34.74261 | -77.08324 | 10913 ft | 340 kts | 239° |
| 2026-05-04 17:51 | 34.72929 | -77.10832 | 10983 ft | 365 kts | 239° |
| 2026-05-04 17:51 | 34.71540 | -77.13440 | 11708 ft | 367 kts | 239° |
| 2026-05-04 17:52 | 34.70153 | -77.16044 | 12507 ft | 368 kts | 240° |
| 2026-05-04 17:52 | 34.68761 | -77.18668 | 13202 ft | 371 kts | 240° |
| 2026-05-04 17:52 | 34.67358 | -77.21309 | 13855 ft | 374 kts | 240° |
| 2026-05-04 17:52 | 34.65956 | -77.23939 | 14488 ft | 376 kts | 240° |
| 2026-05-04 17:53 | 34.64528 | -77.26617 | 15094 ft | 380 kts | 240° |
| 2026-05-04 17:53 | 34.63085 | -77.29322 | 15751 ft | 383 kts | 240° |
| 2026-05-04 17:53 | 34.61637 | -77.32034 | 16410 ft | 385 kts | 240° |
| 2026-05-04 17:53 | 34.60172 | -77.34780 | 17043 ft | 388 kts | 240° |
| 2026-05-04 17:54 | 34.58698 | -77.37537 | 17638 ft | 392 kts | 240° |
| 2026-05-04 17:54 | 34.57208 | -77.40322 | 18276 ft | 395 kts | 240° |
| 2026-05-04 17:54 | 34.55710 | -77.43119 | 18934 ft | 398 kts | 240° |
| 2026-05-04 17:54 | 34.54279 | -77.45790 | 19533 ft | 401 kts | 240° |
| 2026-05-04 17:55 | 34.52773 | -77.48601 | 20158 ft | 404 kts | 241° |
| 2026-05-04 17:55 | 34.51237 | -77.51462 | 20833 ft | 407 kts | 241° |
| 2026-05-04 17:55 | 34.49687 | -77.54346 | 21457 ft | 410 kts | 241° |
| 2026-05-04 17:55 | 34.48124 | -77.57256 | 22059 ft | 414 kts | 241° |
| 2026-05-04 17:56 | 34.46546 | -77.60189 | 22664 ft | 417 kts | 241° |
| 2026-05-04 17:56 | 34.44956 | -77.63141 | 23221 ft | 420 kts | 241° |
| 2026-05-04 17:56 | 34.43353 | -77.66116 | 23812 ft | 423 kts | 242° |
| 2026-05-04 17:56 | 34.41737 | -77.69115 | 24348 ft | 427 kts | 242° |
| 2026-05-04 17:57 | 34.40110 | -77.72131 | 24894 ft | 430 kts | 242° |
| 2026-05-04 17:57 | 34.38471 | -77.75160 | 25470 ft | 431 kts | 242° |
| 2026-05-04 17:57 | 34.36843 | -77.78170 | 25960 ft | 435 kts | 242° |
| 2026-05-04 17:57 | 34.35178 | -77.81250 | 26465 ft | 438 kts | 241° |
| 2026-05-04 17:58 | 34.33510 | -77.84333 | 26950 ft | 441 kts | 241° |
| 2026-05-04 17:58 | 34.31822 | -77.87443 | 27450 ft | 443 kts | 241° |
| 2026-05-04 17:58 | 34.30125 | -77.90570 | 27938 ft | 446 kts | 241° |
| 2026-05-04 17:58 | 34.28421 | -77.93709 | 28409 ft | 448 kts | 241° |
| 2026-05-04 17:59 | 34.26703 | -77.96871 | 28898 ft | 451 kts | 241° |
| 2026-05-04 17:59 | 34.24975 | -78.00046 | 29348 ft | 454 kts | 241° |
| 2026-05-04 17:59 | 34.21560 | -78.06299 | 31189 ft | 426 kts | 241° |
| 2026-05-04 18:00 | 34.19937 | -78.09275 | 31726 ft | 423 kts | 241° |
| 2026-05-04 18:00 | 34.18328 | -78.12242 | 32276 ft | 421 kts | 242° |
| 2026-05-04 18:00 | 34.16721 | -78.15186 | 32908 ft | 418 kts | 242° |
| 2026-05-04 18:00 | 34.15121 | -78.18103 | 33560 ft | 415 kts | 242° |
| 2026-05-04 18:01 | 34.13558 | -78.20955 | 34250 ft | 411 kts | 242° |
| 2026-05-04 18:01 | 34.11985 | -78.23832 | 34941 ft | 409 kts | 242° |
| 2026-05-04 18:01 | 34.10405 | -78.26684 | 35523 ft | 409 kts | 240° |
| 2026-05-04 18:02 | 34.06597 | -78.31866 | 36623 ft | 414 kts | 232° |
| 2026-05-04 18:02 | 34.04652 | -78.34395 | 37371 ft | 407 kts | 231° |
| 2026-05-04 18:02 | 34.02756 | -78.36865 | 38149 ft | 399 kts | 231° |
| 2026-05-04 18:02 | 34.00872 | -78.39303 | 38721 ft | 396 kts | 231° |
| 2026-05-04 18:03 | 33.98995 | -78.41725 | 39248 ft | 394 kts | 231° |
| 2026-05-04 18:03 | 33.97127 | -78.44139 | 39706 ft | 394 kts | 231° |
| 2026-05-04 18:03 | 33.95254 | -78.46563 | 40112 ft | 395 kts | 231° |
| 2026-05-04 18:03 | 33.93376 | -78.48987 | 40528 ft | 397 kts | 231° |
| 2026-05-04 18:04 | 33.91488 | -78.51418 | 40959 ft | 397 kts | 231° |
| 2026-05-04 18:04 | 33.89596 | -78.53855 | 41385 ft | 398 kts | 231° |
| 2026-05-04 18:04 | 33.85825 | -78.58712 | 42248 ft | 399 kts | 231° |
| 2026-05-04 18:05 | 33.83927 | -78.61153 | 42644 ft | 400 kts | 231° |
| 2026-05-04 18:05 | 33.82023 | -78.63600 | 43033 ft | 401 kts | 231° |
| 2026-05-04 18:05 | 33.80116 | -78.66048 | 43444 ft | 401 kts | 231° |
| 2026-05-04 18:05 | 33.78204 | -78.68503 | 43816 ft | 402 kts | 231° |
| 2026-05-04 18:06 | 33.74373 | -78.73415 | 44503 ft | 404 kts | 231° |
| 2026-05-04 18:06 | 33.72449 | -78.75878 | 44821 ft | 405 kts | 231° |
| 2026-05-04 18:06 | 33.70520 | -78.78347 | 45120 ft | 406 kts | 231° |
| 2026-05-04 18:07 | 33.68582 | -78.80826 | 45405 ft | 407 kts | 231° |
| 2026-05-04 18:07 | 33.66639 | -78.83308 | 45689 ft | 408 kts | 231° |
| 2026-05-04 18:07 | 33.64693 | -78.85793 | 45958 ft | 409 kts | 231° |
| 2026-05-04 18:07 | 33.62738 | -78.88289 | 46209 ft | 410 kts | 231° |
| 2026-05-04 18:08 | 33.60780 | -78.90785 | 46465 ft | 411 kts | 231° |
| 2026-05-04 18:08 | 33.58816 | -78.93288 | 46693 ft | 412 kts | 231° |
| 2026-05-04 18:08 | 33.56852 | -78.95788 | 46931 ft | 412 kts | 231° |
| 2026-05-04 18:08 | 33.54889 | -78.98286 | 47138 ft | 412 kts | 231° |
| 2026-05-04 18:09 | 33.50905 | -79.03355 | 47134 ft | 424 kts | 230° |
| 2026-05-04 18:09 | 33.46828 | -79.08527 | 47140 ft | 434 kts | 230° |
| 2026-05-04 18:10 | 33.42625 | -79.13854 | 47144 ft | 445 kts | 230° |
| 2026-05-04 18:10 | 33.38330 | -79.19288 | 47142 ft | 454 kts | 230° |
| 2026-05-04 18:11 | 33.33956 | -79.24816 | 47136 ft | 461 kts | 230° |
| 2026-05-04 18:11 | 33.29520 | -79.30411 | 47132 ft | 466 kts | 230° |
| 2026-05-04 18:12 | 33.25036 | -79.36060 | 47137 ft | 470 kts | 230° |
| 2026-05-04 18:12 | 33.20519 | -79.41738 | 47138 ft | 473 kts | 230° |
| 2026-05-04 18:13 | 33.15976 | -79.47442 | 47133 ft | 475 kts | 230° |
| 2026-05-04 18:14 | 33.09121 | -79.56030 | 47138 ft | 477 kts | 230° |
| 2026-05-04 18:14 | 33.04529 | -79.61773 | 47138 ft | 478 kts | 230° |
| 2026-05-04 18:15 | 32.95363 | -79.73206 | 47134 ft | 479 kts | 230° |
| 2026-05-04 18:16 | 32.90766 | -79.78927 | 47135 ft | 479 kts | 230° |
| 2026-05-04 18:16 | 32.86156 | -79.84654 | 47135 ft | 479 kts | 230° |
| 2026-05-04 18:17 | 32.79248 | -79.93219 | 47137 ft | 478 kts | 230° |
| 2026-05-04 18:18 | 32.72374 | -80.01722 | 47132 ft | 478 kts | 230° |
| 2026-05-04 18:18 | 32.67766 | -80.07411 | 47130 ft | 478 kts | 230° |
| 2026-05-04 18:19 | 32.60857 | -80.15924 | 47133 ft | 477 kts | 230° |
| 2026-05-04 18:19 | 32.56290 | -80.21538 | 47131 ft | 477 kts | 230° |
| 2026-05-04 18:20 | 32.51680 | -80.27200 | 47135 ft | 476 kts | 230° |
| 2026-05-04 18:20 | 32.47084 | -80.32845 | 47131 ft | 476 kts | 230° |
| 2026-05-04 18:21 | 32.45560 | -80.34717 | 47128 ft | 476 kts | 230° |
| 2026-05-04 18:21 | 32.41837 | -80.39280 | 47131 ft | 476 kts | 230° |
| 2026-05-04 18:22 | 32.37268 | -80.44875 | 47129 ft | 476 kts | 230° |
| 2026-05-04 18:22 | 32.32667 | -80.50500 | 47143 ft | 476 kts | 230° |
| 2026-05-04 18:23 | 32.28065 | -80.56116 | 47143 ft | 476 kts | 230° |
| 2026-05-04 18:23 | 32.23455 | -80.61735 | 47150 ft | 476 kts | 230° |
| 2026-05-04 18:24 | 32.18844 | -80.67346 | 47154 ft | 476 kts | 230° |
| 2026-05-04 18:24 | 32.14259 | -80.72916 | 47156 ft | 476 kts | 230° |
| 2026-05-04 18:25 | 32.09638 | -80.78521 | 47155 ft | 477 kts | 230° |
| 2026-05-04 18:25 | 32.05015 | -80.84121 | 47139 ft | 477 kts | 230° |
| 2026-05-04 18:26 | 32.00374 | -80.89733 | 47132 ft | 478 kts | 230° |
| 2026-05-04 18:26 | 31.95746 | -80.95319 | 47123 ft | 475 kts | 230° |
| 2026-05-04 18:27 | 31.91160 | -81.00851 | 47114 ft | 475 kts | 230° |
| 2026-05-04 18:27 | 31.86540 | -81.06411 | 47109 ft | 475 kts | 230° |
| 2026-05-04 18:28 | 31.81920 | -81.11965 | 47107 ft | 475 kts | 230° |
| 2026-05-04 18:28 | 31.77291 | -81.17519 | 47108 ft | 475 kts | 230° |
| 2026-05-04 18:29 | 31.72659 | -81.23070 | 47108 ft | 476 kts | 230° |
| 2026-05-04 18:29 | 31.68054 | -81.28579 | 47108 ft | 476 kts | 230° |
| 2026-05-04 18:30 | 31.61091 | -81.36894 | 47111 ft | 476 kts | 229° |
| 2026-05-04 18:31 | 31.56443 | -81.42434 | 47110 ft | 477 kts | 230° |
| 2026-05-04 18:31 | 31.51784 | -81.47980 | 47109 ft | 477 kts | 230° |
| 2026-05-04 18:32 | 31.47156 | -81.53479 | 47128 ft | 477 kts | 229° |
| 2026-05-04 18:32 | 31.42493 | -81.59011 | 47128 ft | 477 kts | 229° |
| 2026-05-04 18:33 | 31.37827 | -81.64539 | 47129 ft | 478 kts | 229° |
| 2026-05-04 18:33 | 31.33156 | -81.70066 | 47132 ft | 478 kts | 229° |
| 2026-05-04 18:34 | 31.28476 | -81.75593 | 47137 ft | 478 kts | 229° |
| 2026-05-04 18:34 | 31.23834 | -81.81069 | 47137 ft | 477 kts | 229° |
| 2026-05-04 18:35 | 31.19160 | -81.86573 | 47138 ft | 477 kts | 229° |
| 2026-05-04 18:35 | 31.14486 | -81.92070 | 47131 ft | 477 kts | 229° |
| 2026-05-04 18:36 | 31.09811 | -81.97559 | 47131 ft | 477 kts | 229° |
| 2026-05-04 18:36 | 31.05919 | -82.02123 | 47129 ft | 477 kts | 229° |
| 2026-05-04 18:37 | 31.00478 | -82.08494 | 47128 ft | 477 kts | 229° |
| 2026-05-04 18:37 | 30.96549 | -82.13087 | 47129 ft | 477 kts | 229° |
| 2026-05-04 18:38 | 30.91891 | -82.18526 | 47126 ft | 477 kts | 229° |
| 2026-05-04 18:38 | 30.87197 | -82.23998 | 47129 ft | 477 kts | 229° |
| 2026-05-04 18:39 | 30.82507 | -82.29459 | 47129 ft | 477 kts | 229° |
| 2026-05-04 18:39 | 30.77811 | -82.34918 | 47124 ft | 477 kts | 229° |
| 2026-05-04 18:40 | 30.72714 | -82.39836 | 47111 ft | 485 kts | 218° |
| 2026-05-04 18:40 | 30.66605 | -82.43319 | 47109 ft | 496 kts | 205° |
| 2026-05-04 18:41 | 30.59786 | -82.45046 | 47111 ft | 508 kts | 193° |
| 2026-05-04 18:41 | 30.52762 | -82.45997 | 47121 ft | 507 kts | 194° |
| 2026-05-04 18:42 | 30.45751 | -82.46967 | 47114 ft | 508 kts | 193° |
| 2026-05-04 18:42 | 30.38736 | -82.47918 | 47116 ft | 507 kts | 194° |
| 2026-05-04 18:43 | 30.31766 | -82.48874 | 47099 ft | 508 kts | 194° |
| 2026-05-04 18:43 | 30.24751 | -82.49826 | 47102 ft | 507 kts | 194° |
| 2026-05-04 18:44 | 30.17727 | -82.50706 | 47080 ft | 512 kts | 189° |
| 2026-05-04 18:44 | 30.10588 | -82.50842 | 47110 ft | 513 kts | 188° |
| 2026-05-04 18:45 | 30.03458 | -82.51032 | 47110 ft | 513 kts | 188° |
| 2026-05-04 18:45 | 29.96363 | -82.51167 | 47107 ft | 512 kts | 188° |
| 2026-05-04 18:46 | 29.89245 | -82.51337 | 47110 ft | 512 kts | 188° |
| 2026-05-04 18:46 | 29.82120 | -82.51487 | 47110 ft | 512 kts | 188° |
| 2026-05-04 18:47 | 29.74986 | -82.51647 | 47111 ft | 513 kts | 188° |
| 2026-05-04 18:47 | 29.67853 | -82.51802 | 47113 ft | 513 kts | 188° |
| 2026-05-04 18:48 | 29.60764 | -82.51958 | 47109 ft | 513 kts | 188° |
| 2026-05-04 18:48 | 29.53626 | -82.52114 | 47109 ft | 513 kts | 188° |
| 2026-05-04 18:49 | 29.46495 | -82.52270 | 47099 ft | 513 kts | 188° |
| 2026-05-04 18:49 | 29.39348 | -82.52426 | 47099 ft | 514 kts | 188° |
| 2026-05-04 18:50 | 29.32199 | -82.52582 | 47099 ft | 514 kts | 188° |
| 2026-05-04 18:50 | 29.25081 | -82.52564 | 47067 ft | 521 kts | 182° |
| 2026-05-04 18:51 | 29.17866 | -82.51300 | 47103 ft | 525 kts | 178° |
| 2026-05-04 18:51 | 29.10638 | -82.50009 | 47097 ft | 526 kts | 178° |
| 2026-05-04 18:52 | 29.03469 | -82.48697 | 47088 ft | 526 kts | 178° |
| 2026-05-04 18:52 | 28.96298 | -82.47404 | 47084 ft | 527 kts | 178° |
| 2026-05-04 18:53 | 28.89116 | -82.46104 | 47085 ft | 527 kts | 178° |
| 2026-05-04 18:53 | 28.81872 | -82.44796 | 47084 ft | 527 kts | 178° |
| 2026-05-04 18:54 | 28.74625 | -82.43490 | 47086 ft | 527 kts | 178° |
| 2026-05-04 18:54 | 28.67375 | -82.42184 | 47084 ft | 528 kts | 178° |
| 2026-05-04 18:55 | 28.60120 | -82.40881 | 47085 ft | 528 kts | 178° |
| 2026-05-04 18:55 | 28.49227 | -82.38925 | 47096 ft | 528 kts | 178° |
| 2026-05-04 18:56 | 28.42016 | -82.37633 | 47100 ft | 528 kts | 178° |
| 2026-05-04 18:56 | 28.34998 | -82.36377 | 47091 ft | 528 kts | 178° |
| 2026-05-04 18:57 | 28.27733 | -82.35079 | 47097 ft | 529 kts | 178° |
| 2026-05-04 18:57 | 28.20464 | -82.33782 | 47090 ft | 529 kts | 178° |
| 2026-05-04 18:58 | 28.13194 | -82.32486 | 47083 ft | 529 kts | 178° |
| 2026-05-04 18:58 | 28.05975 | -82.31202 | 47074 ft | 529 kts | 178° |
| 2026-05-04 18:59 | 27.98765 | -82.29201 | 47072 ft | 537 kts | 169° |
| 2026-05-04 18:59 | 27.91617 | -82.26723 | 47069 ft | 537 kts | 170° |
| 2026-05-04 19:00 | 27.84453 | -82.24297 | 47076 ft | 538 kts | 170° |
| 2026-05-04 19:00 | 27.77300 | -82.21834 | 47070 ft | 537 kts | 170° |
| 2026-05-04 19:01 | 27.70132 | -82.19402 | 47061 ft | 538 kts | 170° |
| 2026-05-04 19:01 | 27.62973 | -82.16954 | 47053 ft | 538 kts | 170° |
| 2026-05-04 19:02 | 27.55798 | -82.14518 | 47053 ft | 538 kts | 170° |
| 2026-05-04 19:02 | 27.48669 | -82.12093 | 47059 ft | 538 kts | 170° |
| 2026-05-04 19:03 | 27.41498 | -82.09661 | 47053 ft | 538 kts | 170° |
| 2026-05-04 19:03 | 27.34323 | -82.07229 | 47038 ft | 539 kts | 170° |
| 2026-05-04 19:04 | 27.27148 | -82.04800 | 47019 ft | 535 kts | 170° |
| 2026-05-04 19:04 | 27.23595 | -82.03595 | 46527 ft | 531 kts | 170° |
| 2026-05-04 19:04 | 27.20079 | -82.02408 | 46013 ft | 526 kts | 171° |
| 2026-05-04 19:05 | 27.16592 | -82.01233 | 45505 ft | 522 kts | 171° |
| 2026-05-04 19:05 | 27.13122 | -82.00063 | 44999 ft | 520 kts | 172° |
| 2026-05-04 19:05 | 27.09738 | -81.98712 | 44484 ft | 528 kts | 165° |
| 2026-05-04 19:05 | 27.06458 | -81.96796 | 43970 ft | 538 kts | 156° |
| 2026-05-04 19:06 | 27.03384 | -81.94334 | 43463 ft | 549 kts | 148° |
| 2026-05-04 19:06 | 27.00539 | -81.91424 | 43000 ft | 554 kts | 143° |
| 2026-05-04 19:06 | 26.97768 | -81.88432 | 42554 ft | 553 kts | 143° |
| 2026-05-04 19:06 | 26.94980 | -81.85473 | 42095 ft | 551 kts | 144° |
| 2026-05-04 19:07 | 26.92170 | -81.82565 | 41626 ft | 549 kts | 144° |
| 2026-05-04 19:07 | 26.89369 | -81.79652 | 41148 ft | 548 kts | 144° |
| 2026-05-04 19:07 | 26.86603 | -81.76721 | 40667 ft | 547 kts | 143° |
| 2026-05-04 19:07 | 26.83845 | -81.73801 | 40187 ft | 545 kts | 144° |
| 2026-05-04 19:08 | 26.81076 | -81.70912 | 39697 ft | 543 kts | 144° |
| 2026-05-04 19:08 | 26.78311 | -81.68038 | 39211 ft | 542 kts | 144° |
| 2026-05-04 19:08 | 26.75568 | -81.65162 | 38726 ft | 540 kts | 143° |
| 2026-05-04 19:08 | 26.72832 | -81.62282 | 38240 ft | 539 kts | 143° |
| 2026-05-04 19:09 | 26.70086 | -81.59413 | 37756 ft | 541 kts | 144° |
| 2026-05-04 19:09 | 26.67342 | -81.56558 | 37268 ft | 535 kts | 143° |
| 2026-05-04 19:09 | 26.64616 | -81.53712 | 36774 ft | 542 kts | 143° |
| 2026-05-04 19:09 | 26.61878 | -81.50858 | 36299 ft | 548 kts | 143° |
| 2026-05-04 19:10 | 26.59091 | -81.47947 | 35818 ft | 550 kts | 143° |
| 2026-05-04 19:10 | 26.56282 | -81.45019 | 35329 ft | 555 kts | 143° |
| 2026-05-04 19:10 | 26.53444 | -81.42069 | 34844 ft | 559 kts | 142° |
| 2026-05-04 19:10 | 26.50594 | -81.39106 | 34357 ft | 563 kts | 142° |
| 2026-05-04 19:11 | 26.47724 | -81.36118 | 33866 ft | 564 kts | 142° |
| 2026-05-04 19:11 | 26.44850 | -81.33129 | 33377 ft | 564 kts | 142° |
| 2026-05-04 19:11 | 26.41971 | -81.30144 | 32885 ft | 566 kts | 142° |
| 2026-05-04 19:11 | 26.39083 | -81.27151 | 32396 ft | 568 kts | 142° |
| 2026-05-04 19:12 | 26.36182 | -81.24142 | 31904 ft | 570 kts | 142° |
| 2026-05-04 19:12 | 26.30400 | -81.18151 | 30932 ft | 573 kts | 142° |
| 2026-05-04 19:12 | 26.27602 | -81.14953 | 30400 ft | 581 kts | 135° |
| 2026-05-04 19:13 | 26.24988 | -81.11503 | 29908 ft | 584 kts | 133° |
| 2026-05-04 19:13 | 26.22403 | -81.08004 | 29423 ft | 586 kts | 133° |
| 2026-05-04 19:13 | 26.19781 | -81.04543 | 28935 ft | 585 kts | 134° |
| 2026-05-04 19:13 | 26.17122 | -81.01121 | 28443 ft | 579 kts | 135° |
| 2026-05-04 19:14 | 26.14509 | -80.97715 | 27945 ft | 579 kts | 134° |
| 2026-05-04 19:14 | 26.11955 | -80.94315 | 27446 ft | 573 kts | 134° |
| 2026-05-04 19:14 | 26.09417 | -80.90960 | 26944 ft | 564 kts | 134° |
| 2026-05-04 19:14 | 26.06904 | -80.87699 | 26453 ft | 556 kts | 134° |
| 2026-05-04 19:15 | 26.04379 | -80.84422 | 25953 ft | 552 kts | 134° |
| 2026-05-04 19:15 | 26.01953 | -80.81225 | 25446 ft | 531 kts | 134° |
| 2026-05-04 19:15 | 25.99559 | -80.78077 | 24945 ft | 535 kts | 134° |
| 2026-05-04 19:15 | 25.97147 | -80.74944 | 24448 ft | 532 kts | 134° |
| 2026-05-04 19:16 | 25.94749 | -80.71828 | 23951 ft | 528 kts | 134° |
| 2026-05-04 19:16 | 25.92254 | -80.68883 | 23376 ft | 519 kts | 142° |
| 2026-05-04 19:16 | 25.89288 | -80.66715 | 22783 ft | 504 kts | 157° |
| 2026-05-04 19:16 | 25.86050 | -80.65383 | 22228 ft | 490 kts | 170° |
| 2026-05-04 19:17 | 25.82720 | -80.64896 | 21693 ft | 477 kts | 183° |
| 2026-05-04 19:17 | 25.79436 | -80.65065 | 21203 ft | 469 kts | 188° |
| 2026-05-04 19:17 | 25.76182 | -80.65324 | 20731 ft | 468 kts | 188° |
| 2026-05-04 19:17 | 25.72992 | -80.65569 | 20252 ft | 464 kts | 188° |
| 2026-05-04 19:18 | 25.69788 | -80.65799 | 19758 ft | 460 kts | 188° |
| 2026-05-04 19:18 | 25.66602 | -80.66029 | 19266 ft | 457 kts | 188° |
| 2026-05-04 19:18 | 25.63441 | -80.66266 | 18759 ft | 453 kts | 188° |
| 2026-05-04 19:18 | 25.60313 | -80.66505 | 18260 ft | 449 kts | 188° |
| 2026-05-04 19:19 | 25.57211 | -80.66734 | 17758 ft | 446 kts | 188° |
| 2026-05-04 19:19 | 25.54119 | -80.66958 | 17256 ft | 443 kts | 188° |
| 2026-05-04 19:19 | 25.51062 | -80.67186 | 16758 ft | 439 kts | 188° |
| 2026-05-04 19:19 | 25.48027 | -80.67412 | 16257 ft | 436 kts | 188° |
| 2026-05-04 19:20 | 25.45015 | -80.67634 | 15758 ft | 433 kts | 188° |
| 2026-05-04 19:20 | 25.42018 | -80.67855 | 15257 ft | 430 kts | 188° |
| 2026-05-04 19:20 | 25.39090 | -80.68090 | 14756 ft | 425 kts | 189° |
| 2026-05-04 19:20 | 25.36228 | -80.68764 | 14212 ft | 418 kts | 198° |
| 2026-05-04 19:21 | 25.33433 | -80.69593 | 13712 ft | 415 kts | 198° |
| 2026-05-04 19:21 | 25.30646 | -80.70383 | 13225 ft | 408 kts | 197° |
| 2026-05-04 19:21 | 25.28002 | -80.71095 | 12719 ft | 376 kts | 197° |
| 2026-05-04 19:21 | 25.25562 | -80.71766 | 12204 ft | 350 kts | 198° |
| 2026-05-04 19:22 | 25.23244 | -80.72433 | 11689 ft | 341 kts | 198° |
| 2026-05-04 19:22 | 25.20948 | -80.73089 | 11176 ft | 340 kts | 198° |
| 2026-05-04 19:22 | 25.18716 | -80.73705 | 10659 ft | 321 kts | 197° |
| 2026-05-04 19:22 | 25.16609 | -80.74286 | 10154 ft | 305 kts | 197° |
| 2026-05-04 19:23 | 25.14629 | -80.74843 | 10066 ft | 287 kts | 197° |
| 2026-05-04 19:23 | 25.12666 | -80.75400 | 10074 ft | 310 kts | 197° |
| 2026-05-04 19:23 | 25.10450 | -80.76029 | 10105 ft | 346 kts | 197° |
| 2026-05-04 19:23 | 25.08010 | -80.76707 | 10150 ft | 376 kts | 196° |
| 2026-05-04 19:24 | 25.05392 | -80.77432 | 10194 ft | 395 kts | 196° |
| 2026-05-04 19:24 | 25.02716 | -80.78177 | 10219 ft | 398 kts | 196° |
| 2026-05-04 19:24 | 25.00152 | -80.79277 | 10128 ft | 397 kts | 211° |
| 2026-05-04 19:24 | 24.97984 | -80.81131 | 10088 ft | 395 kts | 223° |
| 2026-05-04 19:25 | 24.95957 | -80.83174 | 10104 ft | 395 kts | 224° |
| 2026-05-04 19:25 | 24.93928 | -80.85223 | 10122 ft | 396 kts | 223° |
| 2026-05-04 19:25 | 24.91909 | -80.87219 | 10128 ft | 396 kts | 223° |
| 2026-05-04 19:25 | 24.89831 | -80.89264 | 10128 ft | 395 kts | 223° |
| 2026-05-04 19:26 | 24.87785 | -80.91289 | 10133 ft | 397 kts | 223° |
| 2026-05-04 19:26 | 24.85769 | -80.93301 | 10135 ft | 395 kts | 223° |
| 2026-05-04 19:26 | 24.83822 | -80.95227 | 10118 ft | 359 kts | 223° |
| 2026-05-04 19:26 | 24.82038 | -80.96991 | 10093 ft | 339 kts | 223° |
| 2026-05-04 19:27 | 24.80275 | -80.98741 | 10090 ft | 340 kts | 223° |
| 2026-05-04 19:27 | 24.78519 | -81.00484 | 10084 ft | 341 kts | 223° |
| 2026-05-04 19:27 | 24.76843 | -81.02277 | 10026 ft | 323 kts | 231° |
| 2026-05-04 19:27 | 24.75719 | -81.04247 | 9992 ft | 287 kts | 240° |
| 2026-05-04 19:28 | 24.74732 | -81.06040 | 9987 ft | 260 kts | 239° |
| 2026-05-04 19:28 | 24.73750 | -81.07756 | 9996 ft | 276 kts | 239° |
| 2026-05-04 19:28 | 24.72737 | -81.09555 | 10003 ft | 277 kts | 239° |
| 2026-05-04 19:28 | 24.71745 | -81.11342 | 10004 ft | 262 kts | 239° |
| 2026-05-04 19:29 | 24.70824 | -81.12990 | 9993 ft | 251 kts | 239° |
| 2026-05-04 19:29 | 24.69923 | -81.14610 | 10012 ft | 253 kts | 239° |
| 2026-05-04 19:29 | 24.68999 | -81.16258 | 9832 ft | 249 kts | 239° |
| 2026-05-04 19:29 | 24.68072 | -81.17907 | 8617 ft | 270 kts | 239° |
| 2026-05-04 19:30 | 24.67082 | -81.19675 | 8355 ft | 268 kts | 239° |
| 2026-05-04 19:30 | 24.66089 | -81.21449 | 8354 ft | 275 kts | 239° |
| 2026-05-04 19:30 | 24.65080 | -81.23247 | 8069 ft | 276 kts | 238° |
| 2026-05-04 19:30 | 24.63967 | -81.24826 | 7992 ft | 248 kts | 230° |
| 2026-05-04 19:31 | 24.62785 | -81.26309 | 8001 ft | 268 kts | 230° |
| 2026-05-04 19:31 | 24.61566 | -81.27863 | 8013 ft | 269 kts | 230° |
| 2026-05-04 19:31 | 24.60345 | -81.29426 | 8012 ft | 270 kts | 230° |
| 2026-05-04 19:31 | 24.59134 | -81.30966 | 8012 ft | 269 kts | 230° |
| 2026-05-04 19:32 | 24.57909 | -81.32525 | 8011 ft | 269 kts | 230° |
| 2026-05-04 19:32 | 24.56684 | -81.34084 | 8008 ft | 270 kts | 230° |
| 2026-05-04 19:32 | 24.55576 | -81.35736 | 7971 ft | 269 kts | 240° |
| 2026-05-04 19:32 | 24.54724 | -81.37562 | 8004 ft | 270 kts | 244° |
| 2026-05-04 19:33 | 24.53888 | -81.39402 | 8014 ft | 269 kts | 243° |
| 2026-05-04 19:33 | 24.53022 | -81.41229 | 8011 ft | 269 kts | 242° |
| 2026-05-04 19:33 | 24.52208 | -81.42924 | 8010 ft | 269 kts | 242° |
| 2026-05-04 19:33 | 24.51341 | -81.44751 | 8009 ft | 269 kts | 243° |
| 2026-05-04 19:34 | 24.50492 | -81.46552 | 8004 ft | 270 kts | 243° |
| 2026-05-04 19:34 | 24.49627 | -81.48376 | 8004 ft | 269 kts | 243° |
| 2026-05-04 19:34 | 24.48761 | -81.50200 | 8003 ft | 269 kts | 243° |
| 2026-05-04 19:34 | 24.47897 | -81.52023 | 7970 ft | 270 kts | 243° |
| 2026-05-04 19:35 | 24.47035 | -81.53842 | 7799 ft | 268 kts | 243° |
| 2026-05-04 19:35 | 24.46467 | -81.55776 | 7510 ft | 268 kts | 263° |
| 2026-05-04 19:35 | 24.46441 | -81.57814 | 7339 ft | 268 kts | 269° |
| 2026-05-04 19:35 | 24.46440 | -81.59854 | 7128 ft | 266 kts | 268° |
| 2026-05-04 19:36 | 24.46416 | -81.61881 | 6901 ft | 266 kts | 268° |
| 2026-05-04 19:36 | 24.46393 | -81.63905 | 6669 ft | 264 kts | 268° |
| 2026-05-04 19:36 | 24.46376 | -81.65886 | 6428 ft | 263 kts | 268° |
| 2026-05-04 19:36 | 24.46361 | -81.67891 | 6193 ft | 263 kts | 268° |
| 2026-05-04 19:37 | 24.46341 | -81.69891 | 5970 ft | 261 kts | 268° |
| 2026-05-04 19:37 | 24.46320 | -81.71881 | 5742 ft | 261 kts | 268° |
| 2026-05-04 19:37 | 24.46301 | -81.73871 | 5510 ft | 260 kts | 268° |
| 2026-05-04 19:37 | 24.46283 | -81.75858 | 5279 ft | 261 kts | 269° |
| 2026-05-04 19:38 | 24.46265 | -81.77842 | 5050 ft | 259 kts | 269° |
| 2026-05-04 19:38 | 24.46245 | -81.79793 | 4828 ft | 260 kts | 269° |
| 2026-05-04 19:38 | 24.46223 | -81.81771 | 4597 ft | 259 kts | 269° |
| 2026-05-04 19:38 | 24.46203 | -81.83748 | 4364 ft | 258 kts | 269° |
| 2026-05-04 19:39 | 24.46183 | -81.85717 | 4145 ft | 258 kts | 269° |
| 2026-05-04 19:39 | 24.46162 | -81.87688 | 3919 ft | 258 kts | 269° |
| 2026-05-04 19:39 | 24.46140 | -81.89649 | 3691 ft | 256 kts | 269° |
| 2026-05-04 19:39 | 24.46119 | -81.91528 | 3469 ft | 256 kts | 269° |
| 2026-05-04 19:40 | 24.46182 | -81.93480 | 3192 ft | 255 kts | 279° |
| 2026-05-04 19:40 | 24.46957 | -81.95213 | 2957 ft | 253 kts | 309° |
| 2026-05-04 19:40 | 24.48357 | -81.96380 | 2952 ft | 257 kts | 334° |
| 2026-05-04 19:40 | 24.50104 | -81.96739 | 3000 ft | 258 kts | 356° |
| 2026-05-04 19:41 | 24.51885 | -81.96740 | 3013 ft | 260 kts | 0° |
| 2026-05-04 19:41 | 24.53620 | -81.96213 | 2750 ft | 261 kts | 29° |
| 2026-05-04 19:41 | 24.54901 | -81.94830 | 2537 ft | 262 kts | 56° |
| 2026-05-04 19:41 | 24.55450 | -81.92944 | 2321 ft | 261 kts | 83° |
| 2026-05-04 19:42 | 24.55483 | -81.90950 | 2176 ft | 263 kts | 91° |
| 2026-05-04 19:42 | 24.55473 | -81.88966 | 1976 ft | 252 kts | 91° |
| 2026-05-04 19:42 | 24.55493 | -81.87175 | 1722 ft | 212 kts | 88° |
| 2026-05-04 19:42 | 24.55517 | -81.85723 | 1517 ft | 171 kts | 87° |
| 2026-05-04 19:43 | 24.55528 | -81.84464 | 1365 ft | 170 kts | 88° |
| 2026-05-04 19:43 | 24.55538 | -81.83181 | 1157 ft | 168 kts | 87° |
| 2026-05-04 19:43 | 24.55552 | -81.81898 | 942 ft | 168 kts | 87° |
| 2026-05-04 19:43 | 24.55566 | -81.80610 | 735 ft | 169 kts | 88° |
| 2026-05-04 19:44 | 24.55581 | -81.79314 | 503 ft | 169 kts | 88° |
| 2026-05-04 19:44 | 24.55576 | -81.78093 | 282 ft | 148 kts | 88° |
| 2026-05-04 19:44 | 24.55596 | -81.77064 | 102 ft | 122 kts | 85° |
| 2026-05-04 19:44 | 24.55610 | -81.76206 | 6 ft | 101 kts | 88° |
| 2026-05-04 19:45 | 24.55619 | -81.75674 | 12 ft | 20 kts | 89° |
| 2026-05-04 19:45 | 24.55560 | -81.75588 | 13 ft | 18 kts | 188° |
| 2026-05-04 19:45 | 24.55446 | -81.75585 | 12 ft | 13 kts | 155° |
| 2026-05-04 19:45 | 24.55443 | -81.75476 | 13 ft | 13 kts | 84° |
| 2026-05-04 19:46 | 24.55408 | -81.75460 | 13 ft | 6 kts | 247° |
| 2026-05-04 19:46 | 24.55408 | -81.75490 | 13 ft | 0 kts | 268° |